sensor_id;sensor_type;location;lat;lon;timestamp;P1;durP1;ratioP1;P2;durP2;ratioP2
3293;SDS011;1659;51.470;6.770;2023-03-31T00:02:11;10.73;;;4.80;;
3293;SDS011;1659;51.470;6.770;2023-03-31T00:04:38;13.60;;;5.37;;
3293;SDS011;1659;51.470;6.770;2023-03-31T00:07:10;12.47;;;5.10;;
3293;SDS011;1659;51.470;6.770;2023-03-31T00:09:37;11.53;;;6.20;;
3293;SDS011;1659;51.470;6.770;2023-03-31T00:12:05;7.53;;;5.70;;
3293;SDS011;1659;51.470;6.770;2023-03-31T00:14:31;15.17;;;4.90;;
3293;SDS011;1659;51.470;6.770;2023-03-31T00:16:59;9.20;;;4.80;;
3293;SDS011;1659;51.470;6.770;2023-03-31T00:19:28;14.50;;;4.73;;
3293;SDS011;1659;51.470;6.770;2023-03-31T00:21:57;15.30;;;5.30;;
3293;SDS011;1659;51.470;6.770;2023-03-31T00:24:26;6.33;;;4.30;;
3293;SDS011;1659;51.470;6.770;2023-03-31T00:26:56;9.80;;;4.63;;
3293;SDS011;1659;51.470;6.770;2023-03-31T00:29:23;13.90;;;4.50;;
3293;SDS011;1659;51.470;6.770;2023-03-31T00:31:49;18.03;;;5.10;;
3293;SDS011;1659;51.470;6.770;2023-03-31T00:34:17;18.73;;;5.63;;
3293;SDS011;1659;51.470;6.770;2023-03-31T00:36:44;10.50;;;4.83;;
3293;SDS011;1659;51.470;6.770;2023-03-31T00:39:11;15.93;;;7.37;;
3293;SDS011;1659;51.470;6.770;2023-03-31T00:41:39;11.83;;;5.83;;
3293;SDS011;1659;51.470;6.770;2023-03-31T00:44:07;13.37;;;5.90;;
3293;SDS011;1659;51.470;6.770;2023-03-31T00:46:37;12.83;;;5.30;;
3293;SDS011;1659;51.470;6.770;2023-03-31T00:49:21;10.97;;;5.30;;
3293;SDS011;1659;51.470;6.770;2023-03-31T00:51:51;13.37;;;4.73;;
3293;SDS011;1659;51.470;6.770;2023-03-31T00:54:20;17.47;;;5.53;;
3293;SDS011;1659;51.470;6.770;2023-03-31T00:56:50;6.37;;;4.50;;
3293;SDS011;1659;51.470;6.770;2023-03-31T00:59:19;10.20;;;5.97;;
3293;SDS011;1659;51.470;6.770;2023-03-31T01:01:51;14.40;;;5.80;;
3293;SDS011;1659;51.470;6.770;2023-03-31T01:04:20;9.70;;;5.73;;
3293;SDS011;1659;51.470;6.770;2023-03-31T01:06:50;12.50;;;6.10;;
3293;SDS011;1659;51.470;6.770;2023-03-31T01:09:24;11.30;;;5.07;;
3293;SDS011;1659;51.470;6.770;2023-03-31T01:11:54;6.63;;;3.77;;
3293;SDS011;1659;51.470;6.770;2023-03-31T01:14:21;12.13;;;4.23;;
3293;SDS011;1659;51.470;6.770;2023-03-31T01:16:48;9.33;;;2.90;;
3293;SDS011;1659;51.470;6.770;2023-03-31T01:19:18;7.63;;;3.80;;
3293;SDS011;1659;51.470;6.770;2023-03-31T01:22:04;6.90;;;3.80;;
3293;SDS011;1659;51.470;6.770;2023-03-31T01:28:01;13.10;;;4.50;;
3293;SDS011;1659;51.470;6.770;2023-03-31T01:30:40;12.00;;;5.00;;
3293;SDS011;1659;51.470;6.770;2023-03-31T01:33:38;7.57;;;3.30;;
3293;SDS011;1659;51.470;6.770;2023-03-31T01:42:34;5.83;;;3.17;;
3293;SDS011;1659;51.470;6.770;2023-03-31T01:45:05;13.03;;;3.10;;
3293;SDS011;1659;51.470;6.770;2023-03-31T01:47:39;15.23;;;4.13;;
3293;SDS011;1659;51.470;6.770;2023-03-31T01:50:14;14.67;;;3.40;;
3293;SDS011;1659;51.470;6.770;2023-03-31T01:52:51;16.53;;;5.33;;
3293;SDS011;1659;51.470;6.770;2023-03-31T01:55:27;10.73;;;4.60;;
3293;SDS011;1659;51.470;6.770;2023-03-31T01:57:59;17.40;;;6.23;;
3293;SDS011;1659;51.470;6.770;2023-03-31T02:00:32;17.10;;;5.40;;
3293;SDS011;1659;51.470;6.770;2023-03-31T02:03:04;18.23;;;6.40;;
3293;SDS011;1659;51.470;6.770;2023-03-31T02:05:37;12.00;;;5.67;;
3293;SDS011;1659;51.470;6.770;2023-03-31T02:08:09;24.77;;;5.43;;
3293;SDS011;1659;51.470;6.770;2023-03-31T02:10:41;13.37;;;4.60;;
3293;SDS011;1659;51.470;6.770;2023-03-31T02:13:11;8.53;;;4.40;;
3293;SDS011;1659;51.470;6.770;2023-03-31T02:15:40;11.30;;;3.63;;
3293;SDS011;1659;51.470;6.770;2023-03-31T02:18:10;10.73;;;3.80;;
3293;SDS011;1659;51.470;6.770;2023-03-31T02:20:43;8.40;;;3.90;;
3293;SDS011;1659;51.470;6.770;2023-03-31T02:23:13;4.53;;;3.40;;
3293;SDS011;1659;51.470;6.770;2023-03-31T02:25:46;7.97;;;3.67;;
3293;SDS011;1659;51.470;6.770;2023-03-31T02:28:17;5.90;;;3.47;;
3293;SDS011;1659;51.470;6.770;2023-03-31T02:30:49;6.23;;;3.07;;
3293;SDS011;1659;51.470;6.770;2023-03-31T02:33:23;7.67;;;3.17;;
3293;SDS011;1659;51.470;6.770;2023-03-31T02:35:49;10.50;;;3.50;;
3293;SDS011;1659;51.470;6.770;2023-03-31T02:38:16;8.83;;;3.20;;
3293;SDS011;1659;51.470;6.770;2023-03-31T02:40:44;13.47;;;4.00;;
3293;SDS011;1659;51.470;6.770;2023-03-31T02:43:11;4.07;;;3.03;;
3293;SDS011;1659;51.470;6.770;2023-03-31T02:45:42;15.47;;;5.10;;
3293;SDS011;1659;51.470;6.770;2023-03-31T02:48:11;14.87;;;4.50;;
3293;SDS011;1659;51.470;6.770;2023-03-31T02:50:53;12.63;;;4.53;;
3293;SDS011;1659;51.470;6.770;2023-03-31T02:53:45;18.90;;;5.40;;
3293;SDS011;1659;51.470;6.770;2023-03-31T02:56:28;15.40;;;5.10;;
3293;SDS011;1659;51.470;6.770;2023-03-31T02:59:11;16.93;;;5.67;;
3293;SDS011;1659;51.470;6.770;2023-03-31T03:01:50;20.67;;;7.40;;
3293;SDS011;1659;51.470;6.770;2023-03-31T03:04:34;15.77;;;6.03;;
3293;SDS011;1659;51.470;6.770;2023-03-31T03:07:11;14.70;;;6.40;;
3293;SDS011;1659;51.470;6.770;2023-03-31T03:09:48;24.10;;;6.60;;
3293;SDS011;1659;51.470;6.770;2023-03-31T03:12:27;14.93;;;6.00;;
3293;SDS011;1659;51.470;6.770;2023-03-31T03:15:00;13.17;;;7.40;;
3293;SDS011;1659;51.470;6.770;2023-03-31T03:17:32;28.03;;;6.97;;
3293;SDS011;1659;51.470;6.770;2023-03-31T03:20:03;12.40;;;6.20;;
3293;SDS011;1659;51.470;6.770;2023-03-31T03:22:33;34.30;;;8.40;;
3293;SDS011;1659;51.470;6.770;2023-03-31T03:25:01;17.63;;;6.73;;
3293;SDS011;1659;51.470;6.770;2023-03-31T03:27:30;23.77;;;7.30;;
3293;SDS011;1659;51.470;6.770;2023-03-31T03:29:56;23.87;;;8.13;;
3293;SDS011;1659;51.470;6.770;2023-03-31T03:32:23;22.33;;;7.20;;
3293;SDS011;1659;51.470;6.770;2023-03-31T03:34:50;24.73;;;7.30;;
3293;SDS011;1659;51.470;6.770;2023-03-31T03:37:16;20.23;;;6.07;;
3293;SDS011;1659;51.470;6.770;2023-03-31T03:39:43;20.33;;;5.37;;
3293;SDS011;1659;51.470;6.770;2023-03-31T03:42:09;31.50;;;5.47;;
3293;SDS011;1659;51.470;6.770;2023-03-31T03:44:37;11.37;;;4.10;;
3293;SDS011;1659;51.470;6.770;2023-03-31T03:47:04;14.37;;;4.50;;
3293;SDS011;1659;51.470;6.770;2023-03-31T03:49:30;19.63;;;5.40;;
3293;SDS011;1659;51.470;6.770;2023-03-31T03:51:57;11.23;;;4.60;;
3293;SDS011;1659;51.470;6.770;2023-03-31T03:54:23;15.73;;;5.47;;
3293;SDS011;1659;51.470;6.770;2023-03-31T03:56:50;13.80;;;4.80;;
3293;SDS011;1659;51.470;6.770;2023-03-31T03:59:16;21.20;;;4.70;;
3293;SDS011;1659;51.470;6.770;2023-03-31T04:01:44;14.20;;;4.60;;
3293;SDS011;1659;51.470;6.770;2023-03-31T04:04:11;10.67;;;4.37;;
3293;SDS011;1659;51.470;6.770;2023-03-31T04:06:37;22.33;;;4.90;;
3293;SDS011;1659;51.470;6.770;2023-03-31T04:09:04;17.63;;;5.17;;
3293;SDS011;1659;51.470;6.770;2023-03-31T04:11:31;14.63;;;5.80;;
3293;SDS011;1659;51.470;6.770;2023-03-31T04:13:57;9.93;;;4.53;;
3293;SDS011;1659;51.470;6.770;2023-03-31T04:16:24;16.03;;;4.23;;
3293;SDS011;1659;51.470;6.770;2023-03-31T04:18:52;23.47;;;5.40;;
3293;SDS011;1659;51.470;6.770;2023-03-31T04:21:21;14.30;;;4.97;;
3293;SDS011;1659;51.470;6.770;2023-03-31T04:23:48;17.67;;;6.23;;
3293;SDS011;1659;51.470;6.770;2023-03-31T04:26:23;11.13;;;4.50;;
3293;SDS011;1659;51.470;6.770;2023-03-31T04:28:54;11.20;;;4.87;;
3293;SDS011;1659;51.470;6.770;2023-03-31T04:31:24;17.10;;;4.83;;
3293;SDS011;1659;51.470;6.770;2023-03-31T04:33:56;10.80;;;4.30;;
3293;SDS011;1659;51.470;6.770;2023-03-31T04:36:26;14.07;;;5.60;;
3293;SDS011;1659;51.470;6.770;2023-03-31T04:38:55;11.63;;;4.77;;
3293;SDS011;1659;51.470;6.770;2023-03-31T04:41:22;13.67;;;5.90;;
3293;SDS011;1659;51.470;6.770;2023-03-31T04:43:51;18.57;;;4.83;;
3293;SDS011;1659;51.470;6.770;2023-03-31T04:46:18;21.40;;;4.23;;
3293;SDS011;1659;51.470;6.770;2023-03-31T04:48:44;11.63;;;5.03;;
3293;SDS011;1659;51.470;6.770;2023-03-31T04:51:12;11.20;;;5.20;;
3293;SDS011;1659;51.470;6.770;2023-03-31T04:53:40;11.43;;;5.03;;
3293;SDS011;1659;51.470;6.770;2023-03-31T04:56:07;12.53;;;4.20;;
3293;SDS011;1659;51.470;6.770;2023-03-31T04:58:33;17.50;;;4.40;;
3293;SDS011;1659;51.470;6.770;2023-03-31T05:01:00;13.53;;;4.40;;
3293;SDS011;1659;51.470;6.770;2023-03-31T05:03:26;7.57;;;3.57;;
3293;SDS011;1659;51.470;6.770;2023-03-31T05:05:53;16.87;;;4.80;;
3293;SDS011;1659;51.470;6.770;2023-03-31T05:08:21;10.67;;;4.10;;
3293;SDS011;1659;51.470;6.770;2023-03-31T05:10:48;10.37;;;4.07;;
3293;SDS011;1659;51.470;6.770;2023-03-31T05:13:14;8.50;;;4.53;;
3293;SDS011;1659;51.470;6.770;2023-03-31T05:15:41;13.67;;;3.67;;
3293;SDS011;1659;51.470;6.770;2023-03-31T05:18:09;8.43;;;4.30;;
3293;SDS011;1659;51.470;6.770;2023-03-31T05:20:35;12.93;;;3.33;;
3293;SDS011;1659;51.470;6.770;2023-03-31T05:23:02;6.80;;;4.13;;
3293;SDS011;1659;51.470;6.770;2023-03-31T05:25:30;15.03;;;4.40;;
3293;SDS011;1659;51.470;6.770;2023-03-31T05:27:57;12.83;;;4.13;;
3293;SDS011;1659;51.470;6.770;2023-03-31T05:30:25;14.37;;;4.53;;
3293;SDS011;1659;51.470;6.770;2023-03-31T05:32:52;11.67;;;4.33;;
3293;SDS011;1659;51.470;6.770;2023-03-31T05:35:18;19.40;;;4.00;;
3293;SDS011;1659;51.470;6.770;2023-03-31T05:37:45;6.40;;;3.60;;
3293;SDS011;1659;51.470;6.770;2023-03-31T05:40:12;17.23;;;3.93;;
3293;SDS011;1659;51.470;6.770;2023-03-31T05:42:39;14.13;;;4.47;;
3293;SDS011;1659;51.470;6.770;2023-03-31T05:45:07;8.50;;;2.87;;
3293;SDS011;1659;51.470;6.770;2023-03-31T05:47:34;8.43;;;3.87;;
3293;SDS011;1659;51.470;6.770;2023-03-31T05:50:00;8.20;;;3.90;;
3293;SDS011;1659;51.470;6.770;2023-03-31T05:52:31;6.10;;;3.07;;
3293;SDS011;1659;51.470;6.770;2023-03-31T05:54:58;8.93;;;3.27;;
3293;SDS011;1659;51.470;6.770;2023-03-31T05:57:24;5.13;;;2.83;;
3293;SDS011;1659;51.470;6.770;2023-03-31T05:59:52;23.33;;;3.90;;
3293;SDS011;1659;51.470;6.770;2023-03-31T06:02:19;5.60;;;3.17;;
3293;SDS011;1659;51.470;6.770;2023-03-31T06:04:45;9.30;;;3.13;;
3293;SDS011;1659;51.470;6.770;2023-03-31T06:07:12;7.77;;;3.37;;
3293;SDS011;1659;51.470;6.770;2023-03-31T06:09:39;14.03;;;3.77;;
3293;SDS011;1659;51.470;6.770;2023-03-31T06:12:05;13.40;;;4.10;;
3293;SDS011;1659;51.470;6.770;2023-03-31T06:14:32;10.30;;;4.90;;
3293;SDS011;1659;51.470;6.770;2023-03-31T06:17:00;9.73;;;3.83;;
3293;SDS011;1659;51.470;6.770;2023-03-31T06:19:27;8.43;;;4.17;;
3293;SDS011;1659;51.470;6.770;2023-03-31T06:21:53;16.10;;;7.70;;
3293;SDS011;1659;51.470;6.770;2023-03-31T06:24:20;14.23;;;7.57;;
3293;SDS011;1659;51.470;6.770;2023-03-31T06:26:48;14.80;;;6.43;;
3293;SDS011;1659;51.470;6.770;2023-03-31T06:29:14;13.53;;;4.70;;
3293;SDS011;1659;51.470;6.770;2023-03-31T06:31:41;6.90;;;3.50;;
3293;SDS011;1659;51.470;6.770;2023-03-31T06:34:09;7.83;;;2.93;;
3293;SDS011;1659;51.470;6.770;2023-03-31T06:36:35;6.73;;;3.73;;
3293;SDS011;1659;51.470;6.770;2023-03-31T06:39:02;7.43;;;2.87;;
3293;SDS011;1659;51.470;6.770;2023-03-31T06:41:29;5.50;;;2.90;;
3293;SDS011;1659;51.470;6.770;2023-03-31T06:43:55;9.37;;;3.77;;
3293;SDS011;1659;51.470;6.770;2023-03-31T06:46:22;6.93;;;3.80;;
3293;SDS011;1659;51.470;6.770;2023-03-31T06:48:49;5.33;;;3.90;;
3293;SDS011;1659;51.470;6.770;2023-03-31T06:51:17;10.77;;;3.53;;
3293;SDS011;1659;51.470;6.770;2023-03-31T06:53:44;7.17;;;3.93;;
3293;SDS011;1659;51.470;6.770;2023-03-31T06:56:10;5.00;;;3.60;;
3293;SDS011;1659;51.470;6.770;2023-03-31T06:58:37;10.10;;;4.10;;
3293;SDS011;1659;51.470;6.770;2023-03-31T07:01:04;8.73;;;4.47;;
3293;SDS011;1659;51.470;6.770;2023-03-31T07:03:31;10.87;;;4.30;;
3293;SDS011;1659;51.470;6.770;2023-03-31T07:05:59;7.93;;;4.17;;
3293;SDS011;1659;51.470;6.770;2023-03-31T07:08:27;9.67;;;4.30;;
3293;SDS011;1659;51.470;6.770;2023-03-31T07:10:54;10.10;;;3.67;;
3293;SDS011;1659;51.470;6.770;2023-03-31T07:13:22;8.00;;;3.00;;
3293;SDS011;1659;51.470;6.770;2023-03-31T07:15:50;6.73;;;3.43;;
3293;SDS011;1659;51.470;6.770;2023-03-31T07:18:17;10.40;;;3.20;;
3293;SDS011;1659;51.470;6.770;2023-03-31T07:20:46;3.73;;;3.30;;
3293;SDS011;1659;51.470;6.770;2023-03-31T07:23:14;5.77;;;2.80;;
3293;SDS011;1659;51.470;6.770;2023-03-31T07:25:43;5.40;;;3.10;;
3293;SDS011;1659;51.470;6.770;2023-03-31T07:28:10;4.10;;;3.10;;
3293;SDS011;1659;51.470;6.770;2023-03-31T07:30:36;8.83;;;4.20;;
3293;SDS011;1659;51.470;6.770;2023-03-31T07:33:04;10.20;;;4.20;;
3293;SDS011;1659;51.470;6.770;2023-03-31T07:35:31;7.97;;;3.50;;
3293;SDS011;1659;51.470;6.770;2023-03-31T07:37:57;6.80;;;3.70;;
3293;SDS011;1659;51.470;6.770;2023-03-31T07:40:25;12.87;;;4.07;;
3293;SDS011;1659;51.470;6.770;2023-03-31T07:42:54;12.47;;;4.10;;
3293;SDS011;1659;51.470;6.770;2023-03-31T07:45:22;9.10;;;3.87;;
3293;SDS011;1659;51.470;6.770;2023-03-31T07:47:50;7.87;;;3.53;;
3293;SDS011;1659;51.470;6.770;2023-03-31T07:50:17;7.80;;;4.70;;
3293;SDS011;1659;51.470;6.770;2023-03-31T07:52:44;9.23;;;3.77;;
3293;SDS011;1659;51.470;6.770;2023-03-31T07:55:11;9.87;;;3.70;;
3293;SDS011;1659;51.470;6.770;2023-03-31T07:57:38;11.17;;;5.20;;
3293;SDS011;1659;51.470;6.770;2023-03-31T08:00:07;7.23;;;4.90;;
3293;SDS011;1659;51.470;6.770;2023-03-31T08:02:36;8.00;;;4.60;;
3293;SDS011;1659;51.470;6.770;2023-03-31T08:05:03;5.47;;;3.90;;
3293;SDS011;1659;51.470;6.770;2023-03-31T08:07:32;6.33;;;4.20;;
3293;SDS011;1659;51.470;6.770;2023-03-31T08:09:58;12.10;;;5.00;;
3293;SDS011;1659;51.470;6.770;2023-03-31T08:12:25;10.47;;;4.00;;
3293;SDS011;1659;51.470;6.770;2023-03-31T08:14:52;10.23;;;3.80;;
3293;SDS011;1659;51.470;6.770;2023-03-31T08:17:20;10.83;;;4.70;;
3293;SDS011;1659;51.470;6.770;2023-03-31T08:19:46;16.43;;;5.33;;
3293;SDS011;1659;51.470;6.770;2023-03-31T08:22:13;12.03;;;5.70;;
3293;SDS011;1659;51.470;6.770;2023-03-31T08:24:40;11.13;;;4.50;;
3293;SDS011;1659;51.470;6.770;2023-03-31T08:27:06;13.20;;;4.83;;
3293;SDS011;1659;51.470;6.770;2023-03-31T08:29:33;13.03;;;4.67;;
3293;SDS011;1659;51.470;6.770;2023-03-31T08:31:59;11.10;;;6.10;;
3293;SDS011;1659;51.470;6.770;2023-03-31T08:34:27;11.10;;;5.80;;
3293;SDS011;1659;51.470;6.770;2023-03-31T08:36:54;18.97;;;6.27;;
3293;SDS011;1659;51.470;6.770;2023-03-31T08:39:21;15.23;;;7.67;;
3293;SDS011;1659;51.470;6.770;2023-03-31T08:41:50;8.80;;;6.40;;
3293;SDS011;1659;51.470;6.770;2023-03-31T08:44:25;12.57;;;7.70;;
3293;SDS011;1659;51.470;6.770;2023-03-31T08:46:57;27.33;;;8.60;;
3293;SDS011;1659;51.470;6.770;2023-03-31T08:49:38;25.17;;;9.03;;
3293;SDS011;1659;51.470;6.770;2023-03-31T08:52:10;22.17;;;8.80;;
3293;SDS011;1659;51.470;6.770;2023-03-31T08:54:40;23.20;;;9.40;;
3293;SDS011;1659;51.470;6.770;2023-03-31T08:57:11;26.80;;;8.80;;
3293;SDS011;1659;51.470;6.770;2023-03-31T08:59:43;30.90;;;8.67;;
3293;SDS011;1659;51.470;6.770;2023-03-31T09:02:11;20.17;;;7.37;;
3293;SDS011;1659;51.470;6.770;2023-03-31T09:04:54;16.13;;;5.13;;
3293;SDS011;1659;51.470;6.770;2023-03-31T09:07:34;15.83;;;6.13;;
3293;SDS011;1659;51.470;6.770;2023-03-31T09:10:16;10.17;;;4.70;;
3293;SDS011;1659;51.470;6.770;2023-03-31T09:12:54;13.17;;;4.37;;
3293;SDS011;1659;51.470;6.770;2023-03-31T09:15:26;15.10;;;4.67;;
3293;SDS011;1659;51.470;6.770;2023-03-31T09:17:54;15.70;;;4.10;;
3293;SDS011;1659;51.470;6.770;2023-03-31T09:20:27;14.87;;;4.53;;
3293;SDS011;1659;51.470;6.770;2023-03-31T09:22:59;12.33;;;5.40;;
3293;SDS011;1659;51.470;6.770;2023-03-31T09:25:32;13.53;;;4.17;;
3293;SDS011;1659;51.470;6.770;2023-03-31T09:28:01;17.73;;;4.27;;
3293;SDS011;1659;51.470;6.770;2023-03-31T09:30:32;14.30;;;4.17;;
3293;SDS011;1659;51.470;6.770;2023-03-31T09:33:03;15.30;;;5.40;;
3293;SDS011;1659;51.470;6.770;2023-03-31T09:35:38;18.97;;;4.57;;
3293;SDS011;1659;51.470;6.770;2023-03-31T09:38:04;17.07;;;4.60;;
3293;SDS011;1659;51.470;6.770;2023-03-31T09:40:31;14.20;;;3.87;;
3293;SDS011;1659;51.470;6.770;2023-03-31T09:42:59;16.10;;;4.73;;
3293;SDS011;1659;51.470;6.770;2023-03-31T09:45:28;13.03;;;4.37;;
3293;SDS011;1659;51.470;6.770;2023-03-31T09:47:58;9.80;;;4.67;;
3293;SDS011;1659;51.470;6.770;2023-03-31T09:50:28;8.37;;;3.90;;
3293;SDS011;1659;51.470;6.770;2023-03-31T09:52:57;13.13;;;4.63;;
3293;SDS011;1659;51.470;6.770;2023-03-31T09:55:26;18.33;;;4.97;;
3293;SDS011;1659;51.470;6.770;2023-03-31T09:58:00;6.90;;;3.43;;
3293;SDS011;1659;51.470;6.770;2023-03-31T10:00:26;20.10;;;4.40;;
3293;SDS011;1659;51.470;6.770;2023-03-31T10:02:53;13.03;;;3.70;;
3293;SDS011;1659;51.470;6.770;2023-03-31T10:05:27;11.60;;;3.93;;
3293;SDS011;1659;51.470;6.770;2023-03-31T10:10:57;20.70;;;4.13;;
3293;SDS011;1659;51.470;6.770;2023-03-31T10:13:34;13.40;;;4.27;;
3293;SDS011;1659;51.470;6.770;2023-03-31T10:16:10;14.80;;;4.07;;
3293;SDS011;1659;51.470;6.770;2023-03-31T10:18:39;15.87;;;4.43;;
3293;SDS011;1659;51.470;6.770;2023-03-31T10:21:17;15.70;;;4.90;;
3293;SDS011;1659;51.470;6.770;2023-03-31T10:23:48;11.50;;;3.57;;
3293;SDS011;1659;51.470;6.770;2023-03-31T10:26:16;14.13;;;5.40;;
3293;SDS011;1659;51.470;6.770;2023-03-31T10:28:44;12.93;;;4.47;;
3293;SDS011;1659;51.470;6.770;2023-03-31T10:31:14;16.20;;;3.90;;
3293;SDS011;1659;51.470;6.770;2023-03-31T10:33:42;9.60;;;3.77;;
3293;SDS011;1659;51.470;6.770;2023-03-31T10:36:14;15.37;;;4.37;;
3293;SDS011;1659;51.470;6.770;2023-03-31T10:38:46;23.47;;;3.83;;
3293;SDS011;1659;51.470;6.770;2023-03-31T10:41:16;21.00;;;4.60;;
3293;SDS011;1659;51.470;6.770;2023-03-31T10:43:47;14.43;;;4.43;;
3293;SDS011;1659;51.470;6.770;2023-03-31T10:46:15;12.80;;;4.23;;
3293;SDS011;1659;51.470;6.770;2023-03-31T10:48:42;15.83;;;3.70;;
3293;SDS011;1659;51.470;6.770;2023-03-31T10:51:10;19.10;;;4.87;;
3293;SDS011;1659;51.470;6.770;2023-03-31T10:53:40;18.33;;;5.60;;
3293;SDS011;1659;51.470;6.770;2023-03-31T10:56:13;12.73;;;4.00;;
3293;SDS011;1659;51.470;6.770;2023-03-31T10:58:51;17.27;;;3.93;;
3293;SDS011;1659;51.470;6.770;2023-03-31T11:01:33;17.37;;;3.77;;
3293;SDS011;1659;51.470;6.770;2023-03-31T11:04:20;12.33;;;4.37;;
3293;SDS011;1659;51.470;6.770;2023-03-31T11:07:01;6.20;;;3.07;;
3293;SDS011;1659;51.470;6.770;2023-03-31T11:09:39;2.80;;;2.13;;
3293;SDS011;1659;51.470;6.770;2023-03-31T11:12:17;11.70;;;2.73;;
3293;SDS011;1659;51.470;6.770;2023-03-31T11:15:02;6.20;;;3.00;;
3293;SDS011;1659;51.470;6.770;2023-03-31T11:17:46;14.10;;;3.03;;
3293;SDS011;1659;51.470;6.770;2023-03-31T11:20:27;5.27;;;3.20;;
3293;SDS011;1659;51.470;6.770;2023-03-31T11:23:02;8.10;;;2.90;;
3293;SDS011;1659;51.470;6.770;2023-03-31T11:25:37;2.70;;;1.90;;
3293;SDS011;1659;51.470;6.770;2023-03-31T11:28:24;5.40;;;2.20;;
3293;SDS011;1659;51.470;6.770;2023-03-31T11:31:04;7.67;;;3.00;;
3293;SDS011;1659;51.470;6.770;2023-03-31T11:33:49;7.50;;;2.43;;
3293;SDS011;1659;51.470;6.770;2023-03-31T11:36:32;5.00;;;2.93;;
3293;SDS011;1659;51.470;6.770;2023-03-31T11:42:02;4.10;;;2.40;;
3293;SDS011;1659;51.470;6.770;2023-03-31T11:44:34;2.50;;;1.93;;
3293;SDS011;1659;51.470;6.770;2023-03-31T11:47:06;4.70;;;2.03;;
3293;SDS011;1659;51.470;6.770;2023-03-31T11:49:38;5.70;;;2.30;;
3293;SDS011;1659;51.470;6.770;2023-03-31T11:52:12;9.70;;;2.37;;
3293;SDS011;1659;51.470;6.770;2023-03-31T11:54:42;11.53;;;2.27;;
3293;SDS011;1659;51.470;6.770;2023-03-31T11:57:16;8.60;;;2.37;;
3293;SDS011;1659;51.470;6.770;2023-03-31T11:59:49;3.83;;;2.80;;
3293;SDS011;1659;51.470;6.770;2023-03-31T12:02:21;5.00;;;2.67;;
3293;SDS011;1659;51.470;6.770;2023-03-31T12:04:57;6.67;;;2.17;;
3293;SDS011;1659;51.470;6.770;2023-03-31T12:07:27;9.40;;;2.50;;
3293;SDS011;1659;51.470;6.770;2023-03-31T12:09:57;7.73;;;2.50;;
3293;SDS011;1659;51.470;6.770;2023-03-31T12:12:30;12.33;;;2.97;;
3293;SDS011;1659;51.470;6.770;2023-03-31T12:15:04;4.37;;;2.50;;
3293;SDS011;1659;51.470;6.770;2023-03-31T12:17:38;4.23;;;2.20;;
3293;SDS011;1659;51.470;6.770;2023-03-31T12:20:11;6.00;;;2.33;;
3293;SDS011;1659;51.470;6.770;2023-03-31T12:22:53;12.00;;;2.93;;
3293;SDS011;1659;51.470;6.770;2023-03-31T12:25:23;8.17;;;2.60;;
3293;SDS011;1659;51.470;6.770;2023-03-31T12:27:51;10.63;;;3.13;;
3293;SDS011;1659;51.470;6.770;2023-03-31T12:30:21;10.67;;;3.17;;
3293;SDS011;1659;51.470;6.770;2023-03-31T12:32:57;7.10;;;3.17;;
3293;SDS011;1659;51.470;6.770;2023-03-31T12:35:30;6.73;;;2.27;;
3293;SDS011;1659;51.470;6.770;2023-03-31T12:38:09;7.40;;;3.60;;
3293;SDS011;1659;51.470;6.770;2023-03-31T12:40:54;6.77;;;3.27;;
3293;SDS011;1659;51.470;6.770;2023-03-31T12:46:41;9.47;;;2.83;;
3293;SDS011;1659;51.470;6.770;2023-03-31T12:49:42;9.10;;;2.37;;
3293;SDS011;1659;51.470;6.770;2023-03-31T12:52:17;7.60;;;3.37;;
3293;SDS011;1659;51.470;6.770;2023-03-31T12:54:56;13.13;;;4.10;;
3293;SDS011;1659;51.470;6.770;2023-03-31T12:57:36;11.10;;;2.67;;
3293;SDS011;1659;51.470;6.770;2023-03-31T13:00:12;8.20;;;2.80;;
3293;SDS011;1659;51.470;6.770;2023-03-31T13:02:48;9.47;;;3.13;;
3293;SDS011;1659;51.470;6.770;2023-03-31T13:08:19;8.67;;;3.17;;
3293;SDS011;1659;51.470;6.770;2023-03-31T13:11:15;9.13;;;2.60;;
3293;SDS011;1659;51.470;6.770;2023-03-31T13:13:43;8.90;;;2.60;;
3293;SDS011;1659;51.470;6.770;2023-03-31T13:16:24;8.83;;;3.50;;
3293;SDS011;1659;51.470;6.770;2023-03-31T13:18:52;14.27;;;3.30;;
3293;SDS011;1659;51.470;6.770;2023-03-31T13:21:20;10.77;;;3.43;;
3293;SDS011;1659;51.470;6.770;2023-03-31T13:23:48;7.03;;;2.47;;
3293;SDS011;1659;51.470;6.770;2023-03-31T13:29:08;6.77;;;3.27;;
3293;SDS011;1659;51.470;6.770;2023-03-31T13:34:51;10.90;;;2.77;;
3293;SDS011;1659;51.470;6.770;2023-03-31T13:37:34;6.10;;;2.37;;
3293;SDS011;1659;51.470;6.770;2023-03-31T13:40:15;9.93;;;2.90;;
3293;SDS011;1659;51.470;6.770;2023-03-31T13:42:52;7.20;;;2.70;;
3293;SDS011;1659;51.470;6.770;2023-03-31T13:45:47;10.37;;;3.50;;
3293;SDS011;1659;51.470;6.770;2023-03-31T13:48:35;10.10;;;2.30;;
3293;SDS011;1659;51.470;6.770;2023-03-31T13:51:14;9.37;;;1.87;;
3293;SDS011;1659;51.470;6.770;2023-03-31T13:56:47;4.03;;;2.00;;
3293;SDS011;1659;51.470;6.770;2023-03-31T13:59:32;3.27;;;1.90;;
3293;SDS011;1659;51.470;6.770;2023-03-31T14:02:25;6.80;;;2.00;;
3293;SDS011;1659;51.470;6.770;2023-03-31T14:05:10;16.50;;;2.60;;
3293;SDS011;1659;51.470;6.770;2023-03-31T14:07:52;4.87;;;2.30;;
3293;SDS011;1659;51.470;6.770;2023-03-31T14:10:21;5.23;;;2.10;;
3293;SDS011;1659;51.470;6.770;2023-03-31T14:12:50;8.00;;;2.53;;
3293;SDS011;1659;51.470;6.770;2023-03-31T14:15:17;6.30;;;2.50;;
3293;SDS011;1659;51.470;6.770;2023-03-31T14:17:45;7.60;;;3.03;;
3293;SDS011;1659;51.470;6.770;2023-03-31T14:20:23;6.43;;;2.63;;
3293;SDS011;1659;51.470;6.770;2023-03-31T14:22:59;3.40;;;1.80;;
3293;SDS011;1659;51.470;6.770;2023-03-31T14:25:38;10.40;;;2.20;;
3293;SDS011;1659;51.470;6.770;2023-03-31T14:28:16;6.23;;;1.93;;
3293;SDS011;1659;51.470;6.770;2023-03-31T14:31:02;11.90;;;2.50;;
3293;SDS011;1659;51.470;6.770;2023-03-31T14:33:45;4.73;;;2.57;;
3293;SDS011;1659;51.470;6.770;2023-03-31T14:36:20;9.63;;;2.23;;
3293;SDS011;1659;51.470;6.770;2023-03-31T14:38:59;5.90;;;3.53;;
3293;SDS011;1659;51.470;6.770;2023-03-31T14:41:27;14.90;;;4.20;;
3293;SDS011;1659;51.470;6.770;2023-03-31T14:43:54;10.30;;;4.13;;
3293;SDS011;1659;51.470;6.770;2023-03-31T14:46:25;6.00;;;2.50;;
3293;SDS011;1659;51.470;6.770;2023-03-31T14:48:55;11.27;;;4.13;;
3293;SDS011;1659;51.470;6.770;2023-03-31T14:51:23;13.10;;;5.30;;
3293;SDS011;1659;51.470;6.770;2023-03-31T14:53:57;22.50;;;7.40;;
3293;SDS011;1659;51.470;6.770;2023-03-31T14:56:26;19.83;;;8.40;;
3293;SDS011;1659;51.470;6.770;2023-03-31T14:58:57;16.60;;;5.50;;
3293;SDS011;1659;51.470;6.770;2023-03-31T15:01:27;13.63;;;4.47;;
3293;SDS011;1659;51.470;6.770;2023-03-31T15:03:58;12.90;;;2.73;;
3293;SDS011;1659;51.470;6.770;2023-03-31T15:06:26;12.77;;;3.30;;
3293;SDS011;1659;51.470;6.770;2023-03-31T15:08:54;5.20;;;2.30;;
3293;SDS011;1659;51.470;6.770;2023-03-31T15:11:23;6.33;;;2.37;;
3293;SDS011;1659;51.470;6.770;2023-03-31T15:13:52;7.37;;;2.30;;
3293;SDS011;1659;51.470;6.770;2023-03-31T15:16:28;6.67;;;3.13;;
3293;SDS011;1659;51.470;6.770;2023-03-31T15:18:56;5.70;;;2.40;;
3293;SDS011;1659;51.470;6.770;2023-03-31T15:21:25;7.43;;;2.40;;
3293;SDS011;1659;51.470;6.770;2023-03-31T15:23:56;4.80;;;2.17;;
3293;SDS011;1659;51.470;6.770;2023-03-31T15:26:25;4.80;;;2.67;;
3293;SDS011;1659;51.470;6.770;2023-03-31T15:28:56;5.07;;;2.50;;
3293;SDS011;1659;51.470;6.770;2023-03-31T15:31:27;10.20;;;2.43;;
3293;SDS011;1659;51.470;6.770;2023-03-31T15:33:54;5.57;;;1.97;;
3293;SDS011;1659;51.470;6.770;2023-03-31T15:36:21;5.47;;;1.90;;
3293;SDS011;1659;51.470;6.770;2023-03-31T15:38:52;7.90;;;1.90;;
3293;SDS011;1659;51.470;6.770;2023-03-31T15:41:21;5.73;;;2.57;;
3293;SDS011;1659;51.470;6.770;2023-03-31T15:44:02;3.60;;;1.83;;
3293;SDS011;1659;51.470;6.770;2023-03-31T15:49:21;4.73;;;1.70;;
3293;SDS011;1659;51.470;6.770;2023-03-31T15:51:49;6.60;;;2.40;;
3293;SDS011;1659;51.470;6.770;2023-03-31T15:57:00;4.73;;;1.60;;
3293;SDS011;1659;51.470;6.770;2023-03-31T15:59:29;7.40;;;3.00;;
3293;SDS011;1659;51.470;6.770;2023-03-31T16:01:56;2.20;;;1.73;;
3293;SDS011;1659;51.470;6.770;2023-03-31T16:04:28;1.47;;;1.20;;
3293;SDS011;1659;51.470;6.770;2023-03-31T16:06:57;5.90;;;1.93;;
3293;SDS011;1659;51.470;6.770;2023-03-31T16:09:27;4.40;;;2.30;;